Time;durP1;ratioP1;P1;durP2;ratioP2;P2;SDS_P1;SDS_P2;PMS_P1;PMS_P2;Temp;Humidity;BMP_temperature;BMP_pressure;BME280_temperature;BME280_humidity;BME280_pressure;Samples;Min_cycle;Max_cycle;Signal;HPM_P1;HPM_P2
2022/05/17 00:02:06;;;;;;;2.70;2.50;;;;;;;6.37;85.80;101005.72;5095567;28;20406;-63
2022/05/17 00:04:32;;;;;;;5.70;3.47;;;;;;;6.34;85.68;100992.72;5095482;28;20059;-63
2022/05/17 00:06:59;;;;;;;3.37;2.43;;;;;;;6.31;85.62;100993.00;5095418;28;20063;-62
2022/05/17 00:09:25;;;;;;;2.73;1.97;;;;;;;6.33;84.88;100990.22;5095455;28;20413;-62
2022/05/17 00:11:51;;;;;;;2.93;2.30;;;;;;;6.28;84.21;100987.97;5095146;28;20044;-62
2022/05/17 00:14:18;;;;;;;2.93;2.63;;;;;;;6.38;84.98;101004.75;5095292;28;20405;-64
2022/05/17 00:16:45;;;;;;;2.63;2.43;;;;;;;6.25;85.35;100985.59;5095426;28;20066;-63
2022/05/17 00:19:16;;;;;;;2.50;2.30;;;;;;;6.31;85.09;100993.00;5095272;28;20487;-64
2022/05/17 00:21:42;;;;;;;2.87;2.67;;;;;;;6.38;84.92;101004.75;5095150;28;20139;-64
2022/05/17 00:24:09;;;;;;;3.60;2.60;;;;;;;6.13;84.33;100955.72;5076967;28;20044;-63
2022/05/17 00:26:34;;;;;;;3.53;2.20;;;;;;;6.36;84.23;100993.47;5095205;28;20060;-65
2022/05/17 00:29:01;;;;;;;2.53;2.33;;;;;;;6.40;83.37;100999.34;5095097;28;20071;-62
2022/05/17 00:31:27;;;;;;;2.43;2.23;;;;;;;6.35;84.30;100989.13;5095032;28;20085;-64
2022/05/17 00:33:53;;;;;;;2.87;2.37;;;;;;;6.43;83.39;100997.25;5094827;28;20032;-62
2022/05/17 00:36:19;;;;;;;2.20;2.00;;;;;;;6.18;83.77;100944.75;5095075;28;20131;-65
2022/05/17 00:38:45;;;;;;;2.20;1.93;;;;;;;6.51;82.95;100994.78;5094679;28;20070;-63
2022/05/17 00:41:11;;;;;;;3.33;2.57;;;;;;;6.43;82.51;100970.81;5094650;28;20495;-64
2022/05/17 00:46:45;;;;;;;2.40;2.17;;;;;;;6.45;82.09;100979.44;5095703;28;20027;-63
2022/05/17 00:49:15;;;;;;;2.83;2.30;;;;;;;6.33;82.60;100969.88;5078290;28;20458;-62
2022/05/17 00:51:42;;;;;;;2.40;2.20;;;;;;;6.45;82.62;100990.03;5096255;28;20043;-61
2022/05/17 00:54:14;;;;;;;2.33;2.13;;;;;;;6.41;81.94;100987.78;5095433;28;20105;-62
2022/05/17 00:57:02;;;;;;;1.90;1.80;;;;;;;6.40;81.39;100992.25;5094281;28;20441;-65
2022/05/17 00:59:29;;;;;;;2.85;1.70;;;;;;;6.32;81.55;100989.38;5043086;28;20048;-64
2022/05/17 01:01:55;;;;;;;1.80;1.70;;;;;;;6.30;82.12;100991.31;5076451;28;20035;-62
2022/05/17 01:04:23;;;;;;;1.50;1.37;;;;;;;6.38;81.19;100994.19;5094637;28;20487;-63
2022/05/17 01:06:53;;;;;;;2.13;1.92;;;;;;;6.37;81.36;100992.50;5094551;28;20477;-63
2022/05/17 01:09:21;;;;;;;3.83;1.80;;;;;;;6.37;81.63;100996.94;5094381;28;20054;-62
2022/05/17 01:11:47;;;;;;;2.03;1.73;;;;;;;6.36;81.08;100990.81;5094333;28;20115;-63
2022/05/17 01:16:58;;;;;;;2.23;1.90;;;;;;;6.17;81.17;100961.59;5094533;28;20097;-65
2022/05/17 01:19:24;;;;;;;1.90;1.70;;;;;;;6.34;81.31;100994.53;5094181;28;20390;-63
2022/05/17 01:21:50;;;;;;;1.87;1.50;;;;;;;6.33;81.41;100996.34;5094281;28;20032;-63
2022/05/17 01:24:15;;;;;;;1.70;1.53;;;;;;;6.38;80.85;101003.91;5094120;28;20040;-63
2022/05/17 01:26:43;;;;;;;2.10;1.90;;;;;;;6.37;81.13;100994.31;5094165;28;20028;-63
2022/05/17 01:29:11;;;;;;;2.20;1.60;;;;;;;6.31;80.56;100993.00;5094010;28;20151;-63
2022/05/17 01:31:38;;;;;;;2.08;1.88;;;;;;;6.36;80.37;101009.34;5094168;28;20392;-63
2022/05/17 01:34:11;;;;;;;2.00;1.80;;;;;;;6.27;81.51;101001.31;5075444;28;20042;-63
2022/05/17 01:36:41;;;;;;;1.40;1.30;;;;;;;6.23;81.09;100998.09;5093781;28;20036;-62
2022/05/17 01:39:07;;;;;;;1.80;1.70;;;;;;;6.26;81.29;101005.78;5094124;28;20063;-62
2022/05/17 01:41:33;;;;;;;1.73;1.50;;;;;;;6.29;80.56;101015.25;5093751;28;20031;-62
2022/05/17 01:43:59;;;;;;;2.00;1.80;;;;;;;6.15;81.29;100988.16;5093854;28;20445;-62
2022/05/17 01:46:24;;;;;;;1.97;1.50;;;;;;;6.36;81.08;101011.97;5094348;28;20063;-63
2022/05/17 01:48:51;;;;;;;1.80;1.70;;;;;;;6.32;80.92;101005.25;5094042;28;20036;-63
2022/05/17 01:51:18;;;;;;;1.60;1.50;;;;;;;6.21;80.92;100986.81;5093949;28;20534;-62
2022/05/17 01:53:44;;;;;;;2.23;1.60;;;;;;;6.32;80.83;101005.25;5058848;28;20043;-63
2022/05/17 01:56:10;;;;;;;1.87;1.70;;;;;;;6.36;80.55;101004.06;5093531;28;20044;-63
2022/05/17 01:58:36;;;;;;;1.73;1.57;;;;;;;6.46;80.97;101020.81;5075652;28;20388;-63
2022/05/17 02:01:05;;;;;;;1.50;1.40;;;;;;;6.43;80.64;101018.44;5094219;28;20039;-62
2022/05/17 02:03:31;;;;;;;1.25;1.10;;;;;;;6.22;80.69;100980.56;5093705;28;20039;-63
2022/05/17 02:05:56;;;;;;;1.83;1.70;;;;;;;6.49;80.44;101027.66;5092895;28;20383;-63
2022/05/17 02:08:22;;;;;;;1.87;1.77;;;;;;;6.45;79.79;101023.59;5092489;28;20518;-62
2022/05/17 02:10:47;;;;;;;1.60;1.50;;;;;;;6.52;79.89;101032.69;5093035;28;20569;-62
2022/05/17 02:13:13;;;;;;;3.73;1.63;;;;;;;6.52;80.03;101030.88;5093581;28;20510;-63
2022/05/17 02:15:38;;;;;;;2.20;1.50;;;;;;;6.47;79.68;101030.44;5093151;28;20028;-62
2022/05/17 02:18:04;;;;;;;1.57;1.20;;;;;;;6.45;80.27;101015.66;5093091;28;20043;-62
2022/05/17 02:20:32;;;;;;;1.80;1.70;;;;;;;6.32;79.79;100999.13;5092954;28;20066;-64
2022/05/17 02:23:00;;;;;;;1.10;1.00;;;;;;;6.51;80.04;101026.53;5092924;28;20081;-62
2022/05/17 02:25:26;;;;;;;1.57;1.47;;;;;;;6.51;79.98;101026.53;5092721;28;20517;-63
2022/05/17 02:27:52;;;;;;;1.53;1.43;;;;;;;6.50;79.66;101024.03;5093084;28;20510;-62
2022/05/17 02:30:18;;;;;;;2.10;2.00;;;;;;;6.53;79.94;101007.91;5092970;28;20070;-63
2022/05/17 02:32:43;;;;;;;1.90;1.70;;;;;;;6.57;79.59;101027.00;5092724;28;20077;-65
2022/05/17 02:35:12;;;;;;;2.30;1.73;;;;;;;6.58;79.39;101026.03;5092881;28;20462;-64
2022/05/17 02:37:39;;;;;;;1.80;1.43;;;;;;;6.62;79.66;101030.09;5092509;28;20036;-64
2022/05/17 02:40:06;;;;;;;3.53;1.53;;;;;;;6.64;78.92;101028.13;5092767;28;20028;-62
2022/05/17 02:42:32;;;;;;;1.77;1.67;;;;;;;6.64;78.72;101030.78;5092896;28;20062;-63
2022/05/17 02:44:57;;;;;;;1.47;1.37;;;;;;;6.71;79.03;101043.38;5075212;28;20032;-62
2022/05/17 02:47:24;;;;;;;1.63;1.53;;;;;;;6.69;78.57;101028.63;5093308;28;20131;-62
2022/05/17 02:49:49;;;;;;;8.77;1.77;;;;;;;6.78;79.28;101038.41;5092507;28;20407;-64
2022/05/17 02:52:15;;;;;;;2.10;1.90;;;;;;;6.77;78.70;101028.78;5092378;28;20031;-62
2022/05/17 02:54:41;;;;;;;1.60;1.50;;;;;;;6.85;79.02;101031.59;5092564;28;20054;-62
2022/05/17 02:57:08;;;;;;;2.10;2.00;;;;;;;6.99;78.38;101048.97;5092643;28;20075;-62
2022/05/17 02:59:34;;;;;;;1.70;1.60;;;;;;;7.00;78.02;101027.66;5098168;28;20052;-63
2022/05/17 03:02:00;;;;;;;2.17;1.97;;;;;;;7.21;77.73;101050.56;5098108;28;20040;-63
2022/05/17 03:04:27;;;;;;;2.10;1.83;;;;;;;7.82;75.94;101008.06;5096343;28;20048;-63
2022/05/17 03:06:53;;;;;;;3.30;2.57;;;;;;;9.43;70.16;101029.19;5095329;28;20115;-62
2022/05/17 03:09:18;;;;;;;2.57;2.37;;;;;;;10.70;65.37;101014.72;5092306;28;20032;-63
2022/05/17 03:11:44;;;;;;;1.83;1.73;;;;;;;11.30;63.20;101042.19;5092602;28;20036;-63
2022/05/17 03:14:12;;;;;;;2.10;2.00;;;;;;;11.23;62.49;101040.31;5092257;28;20046;-64
2022/05/17 03:16:38;;;;;;;2.80;2.60;;;;;;;11.87;60.88;101042.41;5091914;28;20042;-63
2022/05/17 03:19:04;;;;;;;2.70;2.50;;;;;;;12.74;58.43;101050.75;5091904;28;20036;-62
2022/05/17 03:21:29;;;;;;;3.07;1.93;;;;;;;12.92;56.84;101044.19;5092650;28;20042;-63
2022/05/17 03:23:55;;;;;;;2.27;2.07;;;;;;;13.24;55.85;101047.78;5096474;28;20036;-64
2022/05/17 03:26:21;;;;;;;1.60;1.47;;;;;;;12.85;56.39;101047.72;5094771;28;20035;-63
2022/05/17 03:28:46;;;;;;;1.47;1.37;;;;;;;11.88;58.37;101044.06;5094356;28;20068;-63
2022/05/17 03:31:13;;;;;;;1.97;1.87;;;;;;;11.03;60.83;101047.72;5092897;28;20370;-63
2022/05/17 03:33:39;;;;;;;2.10;1.60;;;;;;;10.36;63.56;101033.28;5073600;28;20036;-64
2022/05/17 03:36:06;;;;;;;1.70;1.60;;;;;;;10.20;64.75;101053.47;5091529;28;20051;-62
2022/05/17 03:38:33;;;;;;;3.43;2.07;;;;;;;9.88;65.66;101045.13;5091697;28;20531;-62
2022/05/17 03:40:59;;;;;;;1.93;1.77;;;;;;;9.76;66.62;101030.38;5091773;28;20043;-64
2022/05/17 03:43:26;;;;;;;2.23;1.60;;;;;;;9.58;66.01;101056.97;5091827;28;20414;-62
2022/05/17 03:45:51;;;;;;;2.80;1.57;;;;;;;9.17;67.79;101056.44;5091852;28;20040;-63
2022/05/17 03:48:17;;;;;;;2.00;1.87;;;;;;;9.07;68.46;101054.81;5091964;28;20032;-64
2022/05/17 03:50:43;;;;;;;1.77;1.67;;;;;;;9.02;68.30;101038.47;5091626;28;20063;-63
2022/05/17 03:53:08;;;;;;;2.03;1.83;;;;;;;8.77;69.73;101048.75;5091786;28;20036;-62
2022/05/17 03:55:34;;;;;;;1.57;1.37;;;;;;;8.65;70.20;101055.19;5091725;28;20126;-64
2022/05/17 03:58:00;;;;;;;1.43;1.33;;;;;;;8.38;70.71;101048.84;5091833;28;20051;-62
2022/05/17 04:00:25;;;;;;;2.70;1.70;;;;;;;8.30;70.95;101047.81;5091723;28;20043;-63
2022/05/17 04:02:51;;;;;;;1.70;1.50;;;;;;;8.26;71.35;101060.53;5091792;28;20043;-64
2022/05/17 04:05:18;;;;;;;2.30;1.57;;;;;;;8.12;71.79;101046.88;5091409;28;20054;-64
2022/05/17 04:07:43;;;;;;;1.40;1.30;;;;;;;8.34;71.28;101068.66;5074290;28;20039;-66
2022/05/17 04:10:11;;;;;;;2.53;1.97;;;;;;;8.42;71.27;101059.16;5093013;28;20483;-68
2022/05/17 04:12:37;;;;;;;1.77;1.67;;;;;;;8.57;70.94;101068.34;5091655;28;20044;-69
2022/05/17 04:15:05;;;;;;;2.37;1.50;;;;;;;8.40;70.73;101063.78;5091677;28;20058;-71
2022/05/17 04:17:30;;;;;;;1.67;1.57;;;;;;;8.14;71.03;101061.66;5091726;28;20056;-74
2022/05/17 04:19:58;;;;;;;1.57;1.43;;;;;;;8.17;71.90;101068.50;5091575;28;20111;-71
2022/05/17 04:22:24;;;;;;;1.77;1.45;;;;;;;8.21;71.56;101077.84;5091758;28;20047;-70
2022/05/17 04:24:53;;;;;;;1.53;1.43;;;;;;;8.04;72.27;101060.78;5091535;28;20040;-70
2022/05/17 04:27:19;;;;;;;1.83;1.10;;;;;;;8.16;71.54;101080.94;5091813;28;20054;-63
2022/05/17 04:29:44;;;;;;;3.53;1.37;;;;;;;8.12;72.40;101084.84;5073450;28;20032;-69
2022/05/17 04:32:10;;;;;;;1.53;1.43;;;;;;;7.99;71.57;101068.34;5074523;28;20035;-69
2022/05/17 04:34:36;;;;;;;2.53;2.33;;;;;;;7.75;72.17;101036.91;5076875;28;20480;-66
2022/05/17 04:37:03;;;;;;;1.40;1.20;;;;;;;7.87;72.50;101077.41;5095159;28;20036;-64
2022/05/17 04:39:30;;;;;;;3.43;2.33;;;;;;;7.82;72.69;101093.72;5094940;28;20181;-68
2022/05/17 04:41:57;;;;;;;1.80;1.70;;;;;;;7.75;73.42;101098.72;5094805;28;20059;-67
2022/05/17 04:44:22;;;;;;;2.07;1.63;;;;;;;7.68;73.81;101089.63;5094891;28;20402;-69
2022/05/17 04:46:48;;;;;;;2.17;1.50;;;;;;;7.56;73.82;101093.38;5095055;28;20036;-67
2022/05/17 04:49:14;;;;;;;1.70;1.60;;;;;;;7.60;74.15;101101.91;5094793;28;20043;-67
2022/05/17 04:51:39;;;;;;;1.37;1.27;;;;;;;7.34;74.49;101064.44;5095038;28;20131;-67
2022/05/17 04:54:05;;;;;;;2.60;1.50;;;;;;;7.59;75.04;101101.06;5076710;28;20039;-67
2022/05/17 04:56:30;;;;;;;6.70;2.77;;;;;;;7.61;74.46;101100.94;5094724;28;20035;-67
2022/05/17 04:59:21;;;;;;;2.17;1.90;;;;;;;7.63;73.89;101107.78;5094980;28;20125;-66
2022/05/17 05:01:46;;;;;;;5.07;2.37;;;;;;;7.62;74.12;101098.13;5094671;28;20055;-67
2022/05/17 05:04:12;;;;;;;2.30;1.90;;;;;;;7.65;74.76;101107.63;5094763;28;20043;-66
2022/05/17 05:06:38;;;;;;;1.97;1.73;;;;;;;7.66;74.15;101094.25;5094513;28;20138;-68
2022/05/17 05:09:03;;;;;;;3.23;2.00;;;;;;;7.82;74.22;101114.94;5094586;28;20402;-67
2022/05/17 05:11:29;;;;;;;2.30;1.97;;;;;;;7.77;74.41;101096.78;5095243;28;20130;-67
2022/05/17 05:13:54;;;;;;;1.63;1.53;;;;;;;7.86;74.19;101116.34;5094456;28;20043;-65
2022/05/17 05:16:20;;;;;;;4.23;2.07;;;;;;;7.86;72.77;101115.50;5094071;28;20039;-67
2022/05/17 05:18:46;;;;;;;1.80;1.53;;;;;;;7.85;73.19;101117.31;5094489;28;20043;-67
2022/05/17 05:21:15;;;;;;;3.00;1.80;;;;;;;7.67;73.69;101103.88;5094137;28;20085;-68
2022/05/17 05:23:42;;;;;;;1.85;1.60;;;;;;;7.58;73.92;101107.34;5094510;28;20032;-67
2022/05/17 05:26:09;;;;;;;2.93;1.80;;;;;;;7.63;74.06;101138.75;5094316;28;20044;-67
2022/05/17 05:28:35;;;;;;;3.77;2.13;;;;;;;7.40;73.71;101124.84;5098982;28;20043;-66
2022/05/17 05:31:01;;;;;;;3.23;1.97;;;;;;;6.96;75.04;101107.50;5095290;28;20040;-67
2022/05/17 05:33:43;;;;;;;2.40;1.50;;;;;;;6.97;76.33;101140.94;5095977;28;20051;-68
2022/05/17 05:36:09;;;;;;;4.20;1.57;;;;;;;6.85;76.58;101124.25;5103502;28;20044;-63
2022/05/17 05:38:35;;;;;;;2.23;2.03;;;;;;;6.78;76.88;101129.25;5104852;28;20052;-65
2022/05/17 05:41:02;;;;;;;2.27;1.97;;;;;;;6.81;76.75;101146.69;5103188;28;20082;-63
2022/05/17 05:43:27;;;;;;;3.07;2.53;;;;;;;6.85;77.43;101148.09;5098896;28;20040;-64
2022/05/17 05:45:53;;;;;;;2.47;2.27;;;;;;;6.85;76.91;101142.78;5093929;28;20559;-66
2022/05/17 05:48:19;;;;;;;3.17;2.40;;;;;;;6.83;76.38;101152.69;5093291;28;20032;-65
2022/05/17 05:50:47;;;;;;;2.40;2.10;;;;;;;6.47;76.50;101104.50;5092842;28;20036;-69
2022/05/17 05:53:15;;;;;;;4.47;1.92;;;;;;;6.74;76.99;101161.41;5094739;28;20040;-68
2022/05/17 05:55:41;;;;;;;2.53;2.00;;;;;;;6.72;76.11;101165.97;5096855;28;20032;-65
2022/05/17 05:58:07;;;;;;;2.33;1.93;;;;;;;6.62;76.52;101170.34;5097266;28;20508;-65
2022/05/17 06:00:35;;;;;;;2.30;1.93;;;;;;;6.50;77.54;101167.75;5095528;28;20051;-65
2022/05/17 06:03:01;;;;;;;2.90;2.27;;;;;;;6.48;77.98;101161.75;5094689;28;20039;-64
2022/05/17 06:05:27;;;;;;;2.30;2.10;;;;;;;6.49;77.62;101160.78;5098191;28;20103;-72
2022/05/17 06:07:52;;;;;;;3.03;2.67;;;;;;;6.43;78.50;101140.13;5095784;28;20063;-72
2022/05/17 06:10:20;;;;;;;3.03;2.70;;;;;;;6.63;77.78;101154.34;5093596;28;20040;-74
2022/05/17 06:12:46;;;;;;;4.93;2.20;;;;;;;6.84;77.10;101170.25;5092982;28;20031;-66
2022/05/17 06:15:18;;;;;;;2.83;2.20;;;;;;;6.94;75.76;101176.47;5059056;28;20028;-70
2022/05/17 06:17:44;;;;;;;5.00;2.40;;;;;;;6.96;75.53;101176.34;5093400;28;20519;-70
2022/05/17 06:20:17;;;;;;;3.37;2.63;;;;;;;6.82;75.87;101157.13;5093247;28;20063;-66
2022/05/17 06:22:43;;;;;;;4.73;1.80;;;;;;;6.94;75.24;101165.00;5092950;28;20036;-68
2022/05/17 06:25:10;;;;;;;2.90;2.53;;;;;;;6.90;75.26;101169.72;5092517;28;20058;-68
2022/05/17 06:27:36;;;;;;;4.70;2.30;;;;;;;6.85;76.18;101174.56;5093156;28;20036;-67
2022/05/17 06:30:03;;;;;;;4.47;2.80;;;;;;;6.61;76.36;101142.19;5074638;28;20043;-68
2022/05/17 06:32:29;;;;;;;28.07;4.93;;;;;;;6.89;75.54;101188.38;5092680;28;20441;-67
2022/05/17 06:34:56;;;;;;;3.17;2.53;;;;;;;6.96;75.54;101195.72;5092295;28;20511;-66
2022/05/17 06:37:21;;;;;;;18.47;5.47;;;;;;;6.98;75.95;101190.28;5092694;28;20043;-62
2022/05/17 06:39:47;;;;;;;2.80;1.90;;;;;;;7.14;74.30;101196.78;5092883;28;20109;-69
2022/05/17 06:42:12;;;;;;;4.80;1.90;;;;;;;7.18;74.26;101199.19;5057793;28;20444;-71
2022/05/17 06:44:39;;;;;;;4.43;2.30;;;;;;;7.11;73.80;101175.84;5092648;28;20036;-69
2022/05/17 06:47:06;;;;;;;2.63;2.20;;;;;;;7.23;73.37;101192.53;5074477;28;20474;-71
2022/05/17 06:49:32;;;;;;;4.40;2.57;;;;;;;7.25;73.67;101192.41;5092595;28;20032;-68
2022/05/17 06:52:02;;;;;;;4.67;2.30;;;;;;;7.43;73.90;101204.91;5092372;28;20464;-70
2022/05/17 06:54:28;;;;;;;4.53;2.67;;;;;;;7.43;72.82;101186.34;5092380;28;20036;-73
2022/05/17 06:56:53;;;;;;;4.70;2.67;;;;;;;7.52;72.55;101173.28;5092461;28;20038;-71
2022/05/17 06:59:19;;;;;;;5.40;2.40;;;;;;;7.76;71.48;101206.44;5092875;28;20043;-70
2022/05/17 07:01:47;;;;;;;9.33;2.40;;;;;;;7.86;71.22;101190.59;5092278;28;20074;-74
2022/05/17 07:04:13;;;;;;;6.05;2.75;;;;;;;7.77;70.43;101159.56;5092424;28;20032;-70
2022/05/17 07:06:39;;;;;;;3.77;2.00;;;;;;;8.29;69.94;101214.16;5057404;28;20047;-72
2022/05/17 07:09:05;;;;;;;9.67;2.07;;;;;;;8.46;68.12;101210.03;5092233;28;20036;-70
2022/05/17 07:14:15;;;;;;;6.60;2.03;;;;;;;8.86;66.99;101211.72;5092228;28;20100;-72
2022/05/17 07:16:41;;;;;;;4.70;2.13;;;;;;;8.69;67.68;101189.38;5092076;28;20036;-70
2022/05/17 07:19:07;;;;;;;2.63;2.17;;;;;;;8.70;67.47;101212.28;5092201;28;20047;-68
2022/05/17 07:21:33;;;;;;;3.37;1.90;;;;;;;8.50;68.60;101229.19;5092336;28;20035;-68
2022/05/17 07:23:59;;;;;;;6.63;2.07;;;;;;;8.04;68.92;101230.56;5092587;28;20371;-67
2022/05/17 07:26:24;;;;;;;2.37;2.03;;;;;;;7.78;70.72;101246.09;5073866;28;20032;-65
2022/05/17 07:28:50;;;;;;;3.67;2.50;;;;;;;7.57;71.12;101243.50;5091895;28;20394;-67
2022/05/17 07:31:15;;;;;;;4.40;2.50;;;;;;;7.45;71.67;101215.38;5092011;28;20070;-66
2022/05/17 07:33:41;;;;;;;2.50;2.30;;;;;;;7.59;71.89;101253.97;5092254;28;20034;-65
2022/05/17 07:36:08;;;;;;;4.57;2.10;;;;;;;7.52;72.46;101253.66;5073987;28;20063;-67
2022/05/17 07:38:35;;;;;;;2.20;2.00;;;;;;;7.19;72.86;101211.44;5091904;28;20418;-69
2022/05/17 07:41:02;;;;;;;3.30;2.20;;;;;;;7.24;72.81;101256.97;5091920;28;20043;-70
2022/05/17 07:43:28;;;;;;;4.27;1.93;;;;;;;7.19;72.60;101248.53;5057230;28;20552;-67
2022/05/17 07:45:53;;;;;;;4.00;2.10;;;;;;;7.28;72.61;101274.28;5091748;28;20039;-66
2022/05/17 07:48:21;;;;;;;2.40;2.20;;;;;;;7.19;71.87;101269.72;5091576;28;20054;-63
2022/05/17 07:50:47;;;;;;;6.60;2.20;;;;;;;7.01;71.49;101266.81;5091846;28;20032;-63
2022/05/17 07:53:14;;;;;;;5.17;1.73;;;;;;;6.98;71.32;101291.75;5091756;28;20081;-67
2022/05/17 07:55:42;;;;;;;2.77;1.80;;;;;;;6.86;71.72;101287.44;5091645;28;20043;-66
2022/05/17 07:58:08;;;;;;;4.80;2.37;;;;;;;6.77;72.55;101272.31;5091695;28;20036;-69
2022/05/17 08:00:36;;;;;;;2.30;1.87;;;;;;;6.64;72.57;101239.88;5091803;28;20499;-68
2022/05/17 08:03:08;;;;;;;2.20;1.90;;;;;;;6.95;71.54;101292.00;5092531;28;20055;-68
2022/05/17 08:05:35;;;;;;;2.80;1.87;;;;;;;6.97;71.34;101292.72;5092849;28;20441;-69
2022/05/17 08:08:02;;;;;;;5.63;1.87;;;;;;;7.30;70.60;101298.84;5095134;28;20089;-71
2022/05/17 08:10:29;;;;;;;2.50;2.23;;;;;;;7.68;69.13;101301.72;5096414;28;20036;-73
2022/05/17 08:12:54;;;;;;;4.20;1.87;;;;;;;8.09;67.54;101307.91;5095911;28;20035;-69
2022/05/17 08:15:21;;;;;;;4.80;2.60;;;;;;;8.30;66.60;101299.91;5095659;28;20043;-70
2022/05/17 08:17:46;;;;;;;3.53;2.10;;;;;;;8.36;66.36;101316.16;5096181;28;20516;-76
2022/05/17 08:20:12;;;;;;;3.57;1.57;;;;;;;7.97;67.08;101315.13;5095682;28;20036;-67
2022/05/17 08:22:43;;;;;;;4.73;1.93;;;;;;;7.64;68.44;101276.44;5095400;28;20039;-64
2022/05/17 08:28:02;;;;;;;2.67;2.13;;;;;;;7.60;68.86;101328.06;5095031;28;20028;-69
2022/05/17 08:30:28;;;;;;;4.17;1.90;;;;;;;7.29;70.03;101310.41;5095656;28;20038;-71
2022/05/17 08:33:19;;;;;;;2.73;1.80;;;;;;;7.23;69.98;101335.59;5095797;28;20051;-70
2022/05/17 08:35:58;;;;;;;2.27;2.07;;;;;;;7.11;70.92;101333.94;5095246;28;20138;-70
2022/05/17 08:38:35;;;;;;;3.15;2.50;;;;;;;7.11;71.28;101340.09;5094812;28;20046;-63
2022/05/17 08:41:24;;;;;;;4.30;1.67;;;;;;;7.13;70.85;101351.38;5095043;28;20028;-66
2022/05/17 08:43:54;;;;;;;2.83;2.63;;;;;;;6.45;71.03;101259.91;5094835;28;20111;-70
2022/05/17 08:46:40;;;;;;;2.87;1.77;;;;;;;7.14;71.85;101352.22;5094581;28;20093;-69
2022/05/17 08:49:21;;;;;;;2.13;1.60;;;;;;;7.31;70.98;101359.63;5076816;28;20032;-70
2022/05/17 08:52:07;;;;;;;2.87;2.20;;;;;;;7.72;69.62;101357.97;5095038;28;20050;-73
2022/05/17 08:54:44;;;;;;;2.50;1.83;;;;;;;7.76;68.53;101339.03;5094558;28;20085;-66
2022/05/17 08:57:20;;;;;;;3.90;2.07;;;;;;;7.76;68.56;101359.41;5094838;28;20067;-66
2022/05/17 08:59:50;;;;;;;4.10;1.67;;;;;;;7.58;68.55;101359.16;5094274;28;20042;-66
2022/05/17 09:02:25;;;;;;;1.77;1.67;;;;;;;7.39;69.50;101359.00;5094426;28;20494;-65
2022/05/17 09:05:02;;;;;;;3.10;2.00;;;;;;;7.30;70.38;101357.13;5093925;28;20130;-65
2022/05/17 09:07:39;;;;;;;3.00;2.70;;;;;;;7.29;70.78;101366.03;5094459;28;20051;-65
2022/05/17 09:10:18;;;;;;;3.00;1.83;;;;;;;7.28;69.32;101372.31;5095217;28;20032;-66
2022/05/17 09:13:00;;;;;;;3.43;1.70;;;;;;;7.17;69.94;101361.72;5094138;28;20494;-65
2022/05/17 09:15:27;;;;;;;6.30;3.67;;;;;;;7.12;69.98;101357.66;5094205;28;20036;-68
2022/05/17 09:17:53;;;;;;;2.83;1.77;;;;;;;6.63;69.59;101257.56;5093317;28;20538;-70
2022/05/17 09:20:30;;;;;;;2.10;1.90;;;;;;;7.37;69.60;101369.72;5094278;28;20032;-67
2022/05/17 09:22:55;;;;;;;2.43;2.00;;;;;;;7.49;69.10;101382.91;5094259;28;20032;-68
2022/05/17 09:25:28;;;;;;;2.27;1.90;;;;;;;7.48;68.49;101366.16;5094008;28;20445;-67
2022/05/17 09:27:53;;;;;;;8.80;2.17;;;;;;;7.39;68.44;101361.66;5094166;28;20040;-70
2022/05/17 09:30:22;;;;;;;3.17;1.93;;;;;;;7.47;68.32;101383.03;5093982;28;20086;-75
2022/05/17 09:33:00;;;;;;;3.08;1.67;;;;;;;7.40;67.86;101379.22;5094426;28;20081;-70
2022/05/17 09:35:27;;;;;;;4.50;2.17;;;;;;;7.42;68.57;101382.59;5094017;28;20083;-68
2022/05/17 09:37:57;;;;;;;2.77;2.53;;;;;;;7.51;68.28;101379.16;5093902;28;20491;-68
2022/05/17 09:40:35;;;;;;;5.83;2.93;;;;;;;7.49;68.26;101365.19;5092178;28;20111;-70
2022/05/17 09:43:04;;;;;;;38.93;6.30;;;;;;;7.60;68.00;101402.28;5073864;28;20036;-69
2022/05/17 09:45:58;;;;;;;3.83;2.30;;;;;;;7.64;67.79;101393.09;5073750;28;20036;-70
2022/05/17 09:54:27;;;;;;;1.73;1.63;;;;;;;7.64;67.76;101403.69;5074526;28;20036;-70
2022/05/17 09:56:53;;;;;;;2.87;1.90;;;;;;;7.63;66.91;101407.31;5056193;28;20035;-67
2022/05/17 09:59:22;;;;;;;3.80;1.93;;;;;;;7.21;66.89;101350.75;5073251;28;20036;-71
2022/05/17 10:01:49;;;;;;;2.63;2.27;;;;;;;7.54;67.22;101416.03;5074678;28;20492;-73
2022/05/17 10:04:21;;;;;;;4.90;2.50;;;;;;;7.46;67.96;101405.22;5073268;28;20036;-69
2022/05/17 10:06:56;;;;;;;1.50;1.30;;;;;;;7.44;67.77;101407.16;5072844;28;20037;-70
2022/05/17 10:09:31;;;;;;;2.20;2.03;;;;;;;7.50;67.28;101408.44;5055199;28;20082;-71
2022/05/17 10:12:04;;;;;;;2.17;1.83;;;;;;;7.46;66.87;101410.50;5072867;28;20102;-68
2022/05/17 10:14:43;;;;;;;2.03;1.77;;;;;;;7.50;66.45;101427.84;5072791;28;20106;-67
2022/05/17 10:17:33;;;;;;;2.63;1.70;;;;;;;7.57;66.68;101426.38;5072985;28;20349;-65
2022/05/17 10:20:16;;;;;;;3.93;1.57;;;;;;;7.35;65.82;101434.41;5073040;28;20078;-70
2022/05/17 10:22:59;;;;;;;4.43;2.77;;;;;;;7.23;67.21;101428.31;5072671;28;20037;-71
2022/05/17 10:25:43;;;;;;;3.27;2.50;;;;;;;7.25;67.51;101436.97;5072687;28;20048;-66
2022/05/17 10:28:24;;;;;;;4.07;2.43;;;;;;;7.28;67.54;101438.53;5072497;28;20032;-67
2022/05/17 10:31:02;;;;;;;1.93;1.73;;;;;;;7.27;67.72;101426.25;5071628;28;20044;-65
2022/05/17 10:33:39;;;;;;;4.15;2.58;;;;;;;7.24;67.72;101447.72;5054737;28;20040;-67
2022/05/17 10:36:19;;;;;;;11.77;3.87;;;;;;;7.20;68.66;101448.91;5072582;28;20064;-62
2022/05/17 10:38:59;;;;;;;2.93;2.40;;;;;;;7.15;68.03;101457.22;5072269;28;20048;-66
2022/05/17 10:41:25;;;;;;;3.80;3.00;;;;;;;7.06;68.61;101456.16;5072629;28;20040;-64
2022/05/17 10:43:53;;;;;;;2.33;2.13;;;;;;;6.72;69.06;101404.22;5054404;28;20115;-64
2022/05/17 10:46:25;;;;;;;2.73;2.20;;;;;;;7.07;68.56;101457.84;5072156;28;20062;-67
2022/05/17 10:49:39;;;;;;;4.67;2.13;;;;;;;7.09;69.10;101458.56;5072189;28;20044;-66
2022/05/17 10:52:16;;;;;;;3.37;2.13;;;;;;;7.08;69.56;101474.56;4994077;28;20485;-65
2022/05/17 10:54:57;;;;;;;6.33;2.30;;;;;;;7.15;69.14;101476.59;5010716;28;20489;-67
2022/05/17 10:57:52;;;;;;;3.67;2.20;;;;;;;7.09;69.19;101471.81;5056232;28;20051;-66
2022/05/17 11:00:22;;;;;;;5.40;2.30;;;;;;;7.00;69.48;101466.41;5074483;28;20506;-68
2022/05/17 11:03:20;;;;;;;3.43;2.30;;;;;;;6.87;70.20;101460.38;5074510;28;20048;-64
2022/05/17 11:06:21;;;;;;;4.77;2.30;;;;;;;7.00;70.15;101475.19;5074089;28;20592;-62
2022/05/17 11:08:53;;;;;;;4.63;2.27;;;;;;;7.04;70.54;101489.88;5062716;28;20052;-64
2022/05/17 11:11:19;;;;;;;4.50;4.07;;;;;;;6.98;70.41;101485.06;5055109;28;20522;-62
2022/05/17 11:14:23;;;;;;;7.80;2.67;;;;;;;7.02;71.00;101486.50;5054575;28;20052;-65
2022/05/17 11:16:56;;;;;;;5.90;2.50;;;;;;;7.04;70.79;101489.88;5053568;28;20511;-62
2022/05/17 11:20:04;;;;;;;7.93;2.50;;;;;;;6.82;70.17;101444.88;5072175;28;20037;-65
2022/05/17 11:22:54;;;;;;;3.17;2.53;;;;;;;7.05;70.34;101498.66;5044899;28;20040;-63
2022/05/17 11:25:33;;;;;;;4.70;2.40;;;;;;;7.18;69.51;101502.00;5072028;28;20064;-66
2022/05/17 11:28:21;;;;;;;21.30;5.03;;;;;;;7.18;68.97;101487.91;5071987;28;20036;-66
2022/05/17 11:30:57;;;;;;;25.00;4.03;;;;;;;7.18;68.67;101493.22;5072021;28;20055;-62
2022/05/17 11:33:34;;;;;;;5.87;2.17;;;;;;;7.18;69.05;101511.75;5071360;28;20033;-61
2022/05/17 11:36:09;;;;;;;2.87;2.40;;;;;;;7.11;68.79;101506.09;5071719;28;20052;-62
2022/05/17 11:38:34;;;;;;;3.60;1.90;;;;;;;7.07;69.45;101508.16;5071687;28;20172;-62
2022/05/17 11:41:21;;;;;;;7.37;3.47;;;;;;;6.94;69.79;101488.94;5072679;28;20123;-61
2022/05/17 11:43:54;;;;;;;5.30;3.00;;;;;;;7.08;69.22;101509.84;5075133;28;20404;-66
2022/05/17 11:46:29;;;;;;;2.93;2.10;;;;;;;7.07;69.40;101513.47;5075671;28;20130;-60
2022/05/17 11:48:58;;;;;;;6.80;2.77;;;;;;;6.78;69.40;101514.91;5075849;28;20086;-62
2022/05/17 11:51:29;;;;;;;5.00;2.87;;;;;;;6.78;69.85;101530.78;5057483;28;20479;-65
2022/05/17 11:53:55;;;;;;;3.53;2.37;;;;;;;6.57;69.89;101506.81;5075409;28;20033;-64
2022/05/17 11:56:32;;;;;;;2.63;2.13;;;;;;;6.62;69.64;101519.69;5075169;28;20089;-64
2022/05/17 11:59:19;;;;;;;46.73;7.13;;;;;;;6.65;69.84;101511.50;5075686;28;20399;-65
2022/05/17 12:01:47;;;;;;;3.93;2.43;;;;;;;6.72;69.17;101531.28;5057712;28;20038;-68